Time;durP1;ratioP1;P1;durP2;ratioP2;P2;SDS_P1;SDS_P2;PMS_P1;PMS_P2;Temp;Humidity;BMP_temperature;BMP_pressure;BME280_temperature;BME280_humidity;BME280_pressure;Samples;Min_cycle;Max_cycle;Signal;HPM_P1;HPM_P2
2023/10/23 00:00:15;;;;;;;2.60;2.40;;;6.20;99.90;;;;;;5040119;28;20027;-59
2023/10/23 00:02:40;;;;;;;5.28;2.78;;;6.20;99.90;;;;;;5034228;28;20104;-60
2023/10/23 00:05:06;;;;;;;3.42;2.25;;;6.20;99.90;;;;;;5042542;28;20025;-61
2023/10/23 00:07:32;;;;;;;3.10;2.88;;;6.20;99.90;;;;;;5040754;28;20028;-62
2023/10/23 00:09:57;;;;;;;2.60;2.40;;;6.20;99.90;;;;;;5042984;28;20620;-61
2023/10/23 00:12:23;;;;;;;2.85;2.55;;;6.20;99.90;;;;;;5042602;28;20670;-61
2023/10/23 00:14:49;;;;;;;2.92;2.35;;;6.10;99.90;;;;;;5043563;28;20485;-61
2023/10/23 00:17:14;;;;;;;2.67;2.47;;;6.10;99.90;;;;;;5041553;28;20056;-61
2023/10/23 00:19:40;;;;;;;2.50;2.30;;;6.10;99.90;;;;;;5031013;28;20097;-61
2023/10/23 00:22:05;;;;;;;2.50;2.30;;;6.10;99.90;;;;;;5038511;28;20035;-61
2023/10/23 00:24:31;;;;;;;4.50;3.08;;;6.10;99.90;;;;;;5039995;28;20033;-61
2023/10/23 00:26:56;;;;;;;3.58;2.83;;;6.10;99.90;;;;;;5025795;28;20021;-61
2023/10/23 00:29:22;;;;;;;3.17;2.90;;;6.10;99.90;;;;;;5026512;28;20855;-61
2023/10/23 00:31:47;;;;;;;2.80;2.58;;;6.10;99.90;;;;;;5026155;28;20103;-60
2023/10/23 00:34:14;;;;;;;2.58;2.38;;;6.00;99.90;;;;;;5026271;28;20025;-61
2023/10/23 00:36:39;;;;;;;4.78;2.90;;;6.10;99.90;;;;;;5026326;28;20017;-60
2023/10/23 00:39:05;;;;;;;3.15;2.85;;;6.10;99.90;;;;;;5026464;28;20029;-61
2023/10/23 00:41:30;;;;;;;2.95;2.65;;;6.10;99.90;;;;;;5026031;28;20014;-61
2023/10/23 00:43:56;;;;;;;3.67;2.80;;;6.00;99.90;;;;;;5026217;28;20444;-61
2023/10/23 00:46:22;;;;;;;2.88;2.67;;;6.00;99.90;;;;;;5026603;28;20021;-60
2023/10/23 00:48:49;;;;;;;3.45;2.70;;;6.00;99.90;;;;;;5025985;28;20045;-59
2023/10/23 00:51:16;;;;;;;3.35;2.90;;;6.00;99.90;;;;;;5036494;28;20358;-59
2023/10/23 00:53:42;;;;;;;2.85;2.55;;;6.00;99.90;;;;;;5035429;28;20029;-61
2023/10/23 00:56:09;;;;;;;4.40;2.75;;;6.00;99.90;;;;;;5033888;28;20104;-56
2023/10/23 00:58:40;;;;;;;3.17;2.88;;;6.00;99.90;;;;;;5031887;28;20055;-59
2023/10/23 01:01:10;;;;;;;3.83;3.05;;;6.00;99.90;;;;;;5037702;28;20091;-59
2023/10/23 01:03:35;;;;;;;4.03;3.00;;;6.00;99.90;;;;;;5033190;28;20033;-60
2023/10/23 01:06:01;;;;;;;3.03;2.72;;;6.00;99.90;;;;;;5037750;28;20026;-60
2023/10/23 01:08:27;;;;;;;3.13;2.90;;;6.00;99.90;;;;;;5019564;28;20064;-62
2023/10/23 01:10:55;;;;;;;3.42;2.85;;;6.00;99.90;;;;;;5033387;28;20064;-59
2023/10/23 01:13:21;;;;;;;3.53;3.10;;;6.00;99.90;;;;;;5020608;28;20593;-59
2023/10/23 01:15:46;;;;;;;5.53;3.00;;;6.00;99.90;;;;;;5015862;28;20029;-60
2023/10/23 01:18:12;;;;;;;4.72;3.50;;;6.00;99.90;;;;;;5040057;28;20420;-60
2023/10/23 01:20:38;;;;;;;4.30;3.65;;;6.00;99.90;;;;;;5035384;28;20171;-60
2023/10/23 01:23:05;;;;;;;4.30;3.42;;;6.00;99.90;;;;;;5037896;28;20055;-60
2023/10/23 01:25:30;;;;;;;5.35;3.40;;;6.00;99.90;;;;;;5019502;28;20021;-62
2023/10/23 01:27:56;;;;;;;4.97;3.53;;;6.00;99.90;;;;;;5030268;28;20087;-60
2023/10/23 01:30:22;;;;;;;4.75;3.83;;;6.00;99.90;;;;;;5042228;28;20027;-60
2023/10/23 01:32:48;;;;;;;4.30;3.90;;;6.00;99.90;;;;;;5030760;28;20508;-61
2023/10/23 01:35:13;;;;;;;5.30;3.92;;;6.00;99.90;;;;;;5040546;28;20025;-59
2023/10/23 01:37:42;;;;;;;4.85;3.50;;;6.00;99.90;;;;;;5036149;28;20048;-62
2023/10/23 01:40:09;;;;;;;4.97;3.85;;;6.00;99.90;;;;;;5036644;28;20036;-60
2023/10/23 01:42:34;;;;;;;4.68;3.40;;;5.90;99.90;;;;;;5037568;28;20024;-61
2023/10/23 01:45:00;;;;;;;3.83;3.50;;;5.90;99.90;;;;;;5036489;28;20017;-61
2023/10/23 01:47:26;;;;;;;4.15;3.40;;;5.90;99.90;;;;;;5032394;28;20025;-62
2023/10/23 01:49:52;;;;;;;6.47;3.60;;;5.90;99.90;;;;;;5028563;28;20517;-59
2023/10/23 01:52:18;;;;;;;5.95;3.75;;;5.90;99.90;;;;;;5028674;28;20033;-62
2023/10/23 01:54:44;;;;;;;4.40;3.90;;;5.90;99.90;;;;;;5038458;28;20029;-60
2023/10/23 01:57:14;;;;;;;4.28;3.70;;;5.90;99.90;;;;;;5037391;28;20070;-60
2023/10/23 01:59:39;;;;;;;5.38;3.97;;;5.90;99.90;;;;;;5039004;28;20078;-58
2023/10/23 02:02:05;;;;;;;5.60;3.70;;;5.80;99.90;;;;;;5038018;28;20021;-59
2023/10/23 02:04:31;;;;;;;5.53;4.32;;;5.80;99.90;;;;;;5039900;28;20021;-58
2023/10/23 02:06:57;;;;;;;5.07;4.57;;;5.80;99.90;;;;;;5037761;28;20049;-61
2023/10/23 02:09:23;;;;;;;4.82;4.20;;;5.80;99.90;;;;;;5040482;28;20079;-58
2023/10/23 02:11:49;;;;;;;5.60;4.72;;;5.90;99.90;;;;;;5037803;28;20115;-59
2023/10/23 02:14:15;;;;;;;6.10;4.90;;;5.90;99.90;;;;;;5037180;28;20108;-61
2023/10/23 02:16:40;;;;;;;7.35;4.85;;;6.00;99.90;;;;;;5039709;28;20100;-59
2023/10/23 02:19:06;;;;;;;4.18;3.45;;;6.00;99.90;;;;;;5039478;28;20036;-62
2023/10/23 02:21:31;;;;;;;4.50;3.83;;;6.10;99.90;;;;;;5044864;28;20099;-61
2023/10/23 02:23:58;;;;;;;6.05;4.05;;;6.00;99.90;;;;;;5041141;28;20029;-59
2023/10/23 02:26:24;;;;;;;5.32;4.30;;;6.00;99.90;;;;;;5046098;28;20021;-61
2023/10/23 02:28:50;;;;;;;5.05;3.90;;;6.00;99.90;;;;;;5018568;28;20049;-60
2023/10/23 02:31:16;;;;;;;4.85;4.30;;;6.00;99.90;;;;;;5039789;28;20021;-59
2023/10/23 02:33:42;;;;;;;4.63;3.90;;;5.90;99.90;;;;;;5039937;28;20033;-59
2023/10/23 02:36:07;;;;;;;4.85;3.90;;;5.90;99.90;;;;;;5044014;28;20060;-60
2023/10/23 02:38:33;;;;;;;4.35;3.95;;;5.90;99.90;;;;;;5040941;28;20132;-62
2023/10/23 02:40:58;;;;;;;7.25;4.03;;;5.90;99.90;;;;;;5044144;28;20398;-61
2023/10/23 02:43:24;;;;;;;4.35;3.95;;;5.80;99.90;;;;;;5041689;28;20064;-60
2023/10/23 02:45:50;;;;;;;3.95;3.40;;;5.80;99.90;;;;;;5025435;28;20562;-62
2023/10/23 02:48:16;;;;;;;4.10;3.70;;;5.70;99.90;;;;;;5033656;28;20557;-61
2023/10/23 02:50:51;;;;;;;3.65;3.35;;;5.70;99.90;;;;;;5035513;28;20017;-62
2023/10/23 02:53:16;;;;;;;4.20;3.42;;;5.70;99.90;;;;;;5034185;28;20100;-61
2023/10/23 02:55:42;;;;;;;4.43;3.67;;;5.70;99.90;;;;;;5024520;28;20108;-61
2023/10/23 02:58:07;;;;;;;5.82;4.10;;;5.70;99.90;;;;;;5041767;28;20053;-61
2023/10/23 03:00:33;;;;;;;5.05;3.92;;;5.60;99.90;;;;;;5043613;28;20029;-61
2023/10/23 03:02:58;;;;;;;9.27;3.92;;;5.60;99.90;;;;;;5024821;28;20013;-60
2023/10/23 03:05:24;;;;;;;4.90;3.65;;;5.60;99.90;;;;;;5041680;28;20036;-57
2023/10/23 03:07:50;;;;;;;5.57;3.90;;;5.50;99.90;;;;;;5042159;28;20051;-60
2023/10/23 03:10:16;;;;;;;4.45;4.05;;;5.50;99.90;;;;;;5024495;28;20085;-60
2023/10/23 03:12:41;;;;;;;5.43;4.10;;;5.50;99.90;;;;;;5043639;28;20488;-62
2023/10/23 03:15:08;;;;;;;4.80;4.18;;;5.50;99.90;;;;;;5024125;28;20059;-61
2023/10/23 03:17:33;;;;;;;5.10;4.15;;;5.50;99.90;;;;;;5043639;28;20078;-61
2023/10/23 03:19:59;;;;;;;4.50;4.05;;;5.40;99.90;;;;;;5022677;28;20018;-61
2023/10/23 03:22:24;;;;;;;4.55;3.92;;;5.40;99.90;;;;;;5044150;28;20032;-61
2023/10/23 03:24:50;;;;;;;3.90;3.50;;;5.40;99.90;;;;;;5042058;28;20040;-61
2023/10/23 03:27:16;;;;;;;5.13;4.00;;;5.40;99.90;;;;;;5025301;28;20515;-60
2023/10/23 03:29:45;;;;;;;4.43;4.00;;;5.30;99.90;;;;;;5040019;28;20053;-60
2023/10/23 03:32:10;;;;;;;5.07;4.38;;;5.40;99.90;;;;;;5024724;28;20021;-61
2023/10/23 03:34:36;;;;;;;4.68;4.20;;;5.30;99.90;;;;;;5040366;28;20048;-61
2023/10/23 03:37:01;;;;;;;4.78;3.67;;;5.30;99.90;;;;;;5038741;28;20029;-60
2023/10/23 03:39:27;;;;;;;6.25;4.80;;;5.30;99.90;;;;;;5040512;28;20468;-61
2023/10/23 03:41:53;;;;;;;4.65;4.20;;;5.30;99.90;;;;;;5043408;28;20033;-59
2023/10/23 03:44:18;;;;;;;6.10;4.78;;;5.20;99.90;;;;;;5039619;28;20039;-60
2023/10/23 03:46:44;;;;;;;4.72;4.07;;;5.20;99.90;;;;;;5037829;28;20036;-60
2023/10/23 03:49:10;;;;;;;6.18;4.15;;;5.20;99.90;;;;;;5034784;28;20479;-61
2023/10/23 03:51:35;;;;;;;5.30;4.78;;;5.20;99.90;;;;;;5037671;28;20047;-61
2023/10/23 03:54:01;;;;;;;6.03;4.63;;;5.20;99.90;;;;;;5039783;28;20025;-60
2023/10/23 03:56:26;;;;;;;4.95;4.15;;;5.20;99.90;;;;;;5020467;28;20404;-60
2023/10/23 03:58:52;;;;;;;4.95;4.45;;;5.20;99.90;;;;;;5040523;28;20123;-62
2023/10/23 04:01:18;;;;;;;7.55;5.22;;;5.10;99.90;;;;;;5043296;28;20074;-59
2023/10/23 04:03:43;;;;;;;5.55;4.97;;;5.10;99.90;;;;;;5045121;28;20378;-61
2023/10/23 04:06:09;;;;;;;5.00;4.50;;;5.10;99.90;;;;;;5040314;28;20087;-61
2023/10/23 04:08:34;;;;;;;4.50;4.10;;;5.10;99.90;;;;;;5026882;28;20028;-61
2023/10/23 04:11:00;;;;;;;4.82;3.88;;;5.10;99.90;;;;;;5042950;28;20029;-58
2023/10/23 04:13:25;;;;;;;7.20;4.65;;;5.00;99.90;;;;;;5043009;28;20052;-60
2023/10/23 04:15:55;;;;;;;4.70;3.70;;;5.00;99.90;;;;;;5044709;28;20966;-60
2023/10/23 04:18:21;;;;;;;5.85;4.40;;;5.00;99.90;;;;;;5023724;28;20103;-60
2023/10/23 04:20:46;;;;;;;4.72;4.15;;;5.00;99.90;;;;;;5042700;28;20552;-61
2023/10/23 04:23:12;;;;;;;4.80;3.83;;;4.90;99.90;;;;;;5038213;28;20018;-61
2023/10/23 04:25:37;;;;;;;5.07;4.28;;;5.00;99.90;;;;;;5023069;28;20017;-59
2023/10/23 04:28:03;;;;;;;5.05;4.50;;;5.00;99.90;;;;;;5039828;28;20480;-61
2023/10/23 04:30:29;;;;;;;4.63;3.80;;;4.90;99.90;;;;;;5036896;28;20036;-61
2023/10/23 04:32:55;;;;;;;5.50;4.43;;;4.90;99.90;;;;;;5020539;28;20600;-60
2023/10/23 04:35:20;;;;;;;6.95;4.43;;;4.90;99.90;;;;;;5039345;28;20022;-60
2023/10/23 04:37:46;;;;;;;6.03;4.43;;;4.90;99.90;;;;;;5045626;28;20031;-58
2023/10/23 04:40:12;;;;;;;5.65;4.90;;;4.90;99.90;;;;;;5040999;28;20033;-61
2023/10/23 04:42:37;;;;;;;5.07;4.22;;;4.90;99.90;;;;;;5026054;28;20081;-61
2023/10/23 04:45:03;;;;;;;5.82;4.63;;;4.80;99.90;;;;;;5033321;28;20040;-61
2023/10/23 04:47:29;;;;;;;5.55;4.70;;;4.90;99.90;;;;;;5015658;28;20080;-61
2023/10/23 04:49:54;;;;;;;6.25;4.65;;;4.80;99.90;;;;;;5021302;28;20527;-60
2023/10/23 04:52:20;;;;;;;6.72;5.50;;;4.80;99.90;;;;;;5041220;28;20048;-61
2023/10/23 04:54:45;;;;;;;5.15;4.65;;;4.80;99.90;;;;;;5042553;28;20087;-61
2023/10/23 04:57:11;;;;;;;7.72;5.28;;;4.80;99.90;;;;;;5038050;28;20071;-61
2023/10/23 04:59:36;;;;;;;7.93;4.75;;;4.80;99.90;;;;;;5020237;28;20109;-61
2023/10/23 05:02:03;;;;;;;7.15;4.82;;;4.80;99.90;;;;;;5041512;28;20026;-59
2023/10/23 05:04:30;;;;;;;4.82;4.32;;;4.80;99.90;;;;;;5041022;28;20017;-61
2023/10/23 05:06:57;;;;;;;5.78;4.53;;;4.80;99.90;;;;;;5032036;28;20508;-60
2023/10/23 05:09:22;;;;;;;5.72;4.30;;;4.80;99.90;;;;;;5008890;28;20033;-60
2023/10/23 05:11:48;;;;;;;5.53;4.30;;;4.80;99.90;;;;;;5017134;28;20021;-61
2023/10/23 05:14:13;;;;;;;5.75;4.38;;;4.70;99.90;;;;;;5031743;28;20030;-61
2023/10/23 05:16:39;;;;;;;6.40;5.03;;;4.80;99.90;;;;;;5034138;28;20668;-61
2023/10/23 05:19:04;;;;;;;6.80;5.18;;;4.70;99.90;;;;;;5023658;28;20033;-61
2023/10/23 05:21:30;;;;;;;5.95;4.88;;;4.70;99.90;;;;;;5028515;28;20021;-60
2023/10/23 05:23:56;;;;;;;5.50;4.90;;;4.70;99.90;;;;;;5032443;28;20033;-61
2023/10/23 05:26:22;;;;;;;5.60;4.68;;;4.70;99.90;;;;;;5031263;28;20026;-60
2023/10/23 05:28:49;;;;;;;7.13;5.13;;;4.70;99.90;;;;;;5035888;28;20012;-61
2023/10/23 05:31:15;;;;;;;6.72;5.60;;;4.70;99.90;;;;;;5031829;28;20037;-61
2023/10/23 05:33:41;;;;;;;6.70;4.93;;;4.60;99.90;;;;;;5035599;28;20036;-61
2023/10/23 05:36:09;;;;;;;5.55;4.85;;;4.70;99.90;;;;;;5031868;28;20030;-61
2023/10/23 05:38:36;;;;;;;6.00;4.88;;;4.60;99.90;;;;;;5016275;28;20029;-61
2023/10/23 05:41:02;;;;;;;8.20;5.22;;;4.60;99.90;;;;;;5028237;28;20021;-58
2023/10/23 05:43:28;;;;;;;5.65;5.05;;;4.60;99.90;;;;;;5031287;28;20022;-60
2023/10/23 05:45:55;;;;;;;7.75;5.60;;;4.60;99.90;;;;;;5034765;28;20021;-60
2023/10/23 05:48:20;;;;;;;7.90;6.03;;;4.60;99.90;;;;;;5026725;28;20024;-58
2023/10/23 05:51:05;;;;;;;7.75;5.60;;;4.60;99.90;;;;;;5033664;28;20025;-58
2023/10/23 05:53:31;;;;;;;6.68;5.25;;;4.60;99.90;;;;;;5028674;28;20067;-60
2023/10/23 05:56:03;;;;;;;7.68;5.97;;;4.60;99.90;;;;;;5033110;28;20051;-60
2023/10/23 05:58:30;;;;;;;7.30;5.93;;;4.50;99.90;;;;;;5032927;28;20071;-61
2023/10/23 06:00:55;;;;;;;6.43;4.88;;;4.60;99.90;;;;;;5016133;28;20096;-60
2023/10/23 06:03:21;;;;;;;8.43;6.05;;;4.60;99.90;;;;;;5022732;28;20101;-58
2023/10/23 06:05:47;;;;;;;8.55;6.22;;;4.60;99.90;;;;;;5034923;28;20017;-59
2023/10/23 06:08:12;;;;;;;6.50;5.60;;;4.50;99.90;;;;;;5026727;28;20447;-58
2023/10/23 06:10:44;;;;;;;7.28;5.38;;;4.60;99.90;;;;;;5034191;28;20025;-60
2023/10/23 06:13:11;;;;;;;6.63;5.80;;;4.50;99.90;;;;;;5030952;28;20035;-60
2023/10/23 06:15:37;;;;;;;7.03;5.82;;;4.50;99.90;;;;;;5034681;28;20017;-60
2023/10/23 06:18:02;;;;;;;8.15;6.55;;;4.50;99.90;;;;;;5030735;28;20097;-60
2023/10/23 06:20:28;;;;;;;7.97;5.70;;;4.50;99.90;;;;;;5029221;28;20017;-59
2023/10/23 06:22:54;;;;;;;7.55;6.10;;;4.50;99.90;;;;;;5031270;28;20372;-61
2023/10/23 06:25:20;;;;;;;6.75;5.88;;;4.50;99.90;;;;;;5030159;28;20461;-60
2023/10/23 06:27:45;;;;;;;6.55;5.25;;;4.50;99.90;;;;;;5031979;28;20025;-59
2023/10/23 06:30:11;;;;;;;6.57;5.38;;;4.50;99.90;;;;;;5032152;28;20026;-60
2023/10/23 06:32:37;;;;;;;6.40;5.25;;;4.50;99.90;;;;;;5033226;28;20501;-62
2023/10/23 06:35:04;;;;;;;6.68;5.60;;;4.50;99.90;;;;;;5033245;28;20029;-57
2023/10/23 06:37:32;;;;;;;7.85;6.40;;;4.50;99.90;;;;;;5028703;28;20542;-60
2023/10/23 06:39:57;;;;;;;6.45;5.47;;;4.50;99.90;;;;;;5032074;28;20567;-60
2023/10/23 06:42:25;;;;;;;8.63;6.50;;;4.60;99.90;;;;;;5031330;28;20026;-60
2023/10/23 06:44:51;;;;;;;9.65;5.80;;;4.60;99.90;;;;;;5030610;28;20020;-61
2023/10/23 06:47:16;;;;;;;9.20;6.93;;;4.60;99.90;;;;;;5031137;28;20022;-58
2023/10/23 06:49:45;;;;;;;7.53;6.18;;;4.60;99.90;;;;;;5027847;28;20065;-58
2023/10/23 06:52:11;;;;;;;8.93;5.72;;;4.60;99.90;;;;;;5029248;28;20231;-60
2023/10/23 06:54:36;;;;;;;9.20;6.78;;;4.60;99.90;;;;;;5030984;28;20112;-59
2023/10/23 06:57:08;;;;;;;7.90;6.13;;;4.70;99.90;;;;;;5030746;28;20386;-60
2023/10/23 06:59:37;;;;;;;7.70;5.63;;;4.70;99.90;;;;;;5031052;28;20017;-60
2023/10/23 07:02:02;;;;;;;8.57;6.90;;;4.70;99.90;;;;;;5030028;28;20022;-59
2023/10/23 07:04:28;;;;;;;9.60;6.45;;;4.70;99.90;;;;;;5031673;28;20029;-59
2023/10/23 07:06:55;;;;;;;8.52;6.65;;;4.70;99.90;;;;;;5038392;28;20480;-58
2023/10/23 07:09:21;;;;;;;8.73;6.05;;;4.80;99.90;;;;;;5035506;28;20021;-58
2023/10/23 07:11:51;;;;;;;9.25;6.72;;;4.80;99.90;;;;;;5035171;28;20116;-58
2023/10/23 07:14:18;;;;;;;9.88;7.35;;;4.90;99.90;;;;;;5034230;28;20034;-60
2023/10/23 07:16:45;;;;;;;8.00;6.88;;;4.90;99.90;;;;;;5038439;28;20041;-59
2023/10/23 07:19:11;;;;;;;9.77;6.57;;;5.00;99.90;;;;;;5029645;28;20025;-60
2023/10/23 07:21:37;;;;;;;10.13;7.05;;;5.00;99.90;;;;;;5035051;28;20021;-60
2023/10/23 07:24:02;;;;;;;8.02;6.90;;;5.10;99.90;;;;;;5016582;28;20025;-61
2023/10/23 07:26:28;;;;;;;9.15;7.07;;;5.20;99.90;;;;;;5036915;28;20167;-60
2023/10/23 07:28:54;;;;;;;13.35;7.95;;;5.20;99.90;;;;;;5037397;28;20051;-57
2023/10/23 07:31:19;;;;;;;10.52;8.30;;;5.20;99.90;;;;;;5031790;28;20021;-60
2023/10/23 07:33:45;;;;;;;20.40;13.88;;;5.30;99.90;;;;;;5019567;28;20616;-59
2023/10/23 07:36:12;;;;;;;23.27;14.07;;;5.40;99.90;;;;;;5031645;28;20510;-60
2023/10/23 07:38:42;;;;;;;18.15;11.35;;;5.40;99.90;;;;;;5035139;28;20381;-59
2023/10/23 07:41:12;;;;;;;17.30;10.98;;;5.50;99.90;;;;;;5036752;28;20184;-60
2023/10/23 07:43:38;;;;;;;13.70;9.77;;;5.60;99.90;;;;;;5020178;28;20029;-59
2023/10/23 07:46:10;;;;;;;13.68;9.23;;;5.70;99.90;;;;;;5036109;28;20030;-59
2023/10/23 07:48:36;;;;;;;14.70;10.32;;;5.80;99.90;;;;;;5033246;28;20386;-60
2023/10/23 07:51:03;;;;;;;13.50;9.05;;;5.90;99.90;;;;;;5035904;28;20028;-60
2023/10/23 07:53:30;;;;;;;14.38;9.25;;;6.00;99.90;;;;;;5033139;28;20025;-61
2023/10/23 07:55:55;;;;;;;13.77;8.63;;;6.00;99.90;;;;;;5035615;28;20037;-57
2023/10/23 07:58:22;;;;;;;11.23;7.95;;;6.20;99.90;;;;;;5032699;28;20018;-61
2023/10/23 08:00:51;;;;;;;12.60;9.52;;;6.30;99.90;;;;;;5031213;28;20017;-60
2023/10/23 08:03:17;;;;;;;10.88;8.98;;;6.30;99.90;;;;;;5032576;28;20551;-60
2023/10/23 08:05:42;;;;;;;10.98;8.52;;;6.50;99.90;;;;;;5016741;28;20520;-60
2023/10/23 08:08:08;;;;;;;12.15;8.77;;;6.50;99.90;;;;;;5036908;28;20024;-58
2023/10/23 08:10:35;;;;;;;14.82;9.48;;;6.60;99.90;;;;;;5034985;28;20045;-61
2023/10/23 08:13:00;;;;;;;14.65;9.25;;;6.70;99.90;;;;;;5038013;28;20115;-60
2023/10/23 08:15:26;;;;;;;13.93;9.73;;;6.80;99.90;;;;;;5031978;28;20075;-59
2023/10/23 08:17:51;;;;;;;16.90;10.45;;;6.90;99.90;;;;;;5031798;28;21226;-60
2023/10/23 08:20:17;;;;;;;13.60;8.43;;;6.90;99.90;;;;;;5030431;28;20025;-60
2023/10/23 08:22:43;;;;;;;11.18;8.13;;;7.00;99.90;;;;;;5031988;28;20045;-60
2023/10/23 08:25:08;;;;;;;15.35;8.70;;;7.10;99.90;;;;;;5034472;28;20116;-60
2023/10/23 08:27:34;;;;;;;14.82;8.40;;;7.20;99.90;;;;;;5025000;28;20029;-60
2023/10/23 08:29:59;;;;;;;15.52;9.60;;;7.30;99.90;;;;;;5036931;28;20397;-57
2023/10/23 08:32:25;;;;;;;11.82;7.90;;;7.40;99.90;;;;;;5031992;28;20037;-58
2023/10/23 08:34:53;;;;;;;12.35;8.38;;;7.50;99.90;;;;;;5036928;28;20021;-59
2023/10/23 08:37:20;;;;;;;14.73;8.60;;;7.50;99.90;;;;;;5031493;28;20018;-60
2023/10/23 08:39:45;;;;;;;11.98;7.45;;;7.60;99.90;;;;;;5019027;28;20033;-59
2023/10/23 08:42:11;;;;;;;11.23;7.82;;;7.70;99.90;;;;;;5035694;28;20130;-60
2023/10/23 08:44:36;;;;;;;17.67;8.63;;;7.70;99.90;;;;;;5037686;28;20025;-61
2023/10/23 08:47:02;;;;;;;14.75;9.10;;;7.80;99.90;;;;;;5033537;28;20032;-60
2023/10/23 08:49:29;;;;;;;14.45;9.70;;;7.90;99.90;;;;;;5033005;28;20057;-60
2023/10/23 08:51:58;;;;;;;12.27;8.00;;;7.90;99.90;;;;;;5034983;28;20033;-62
2023/10/23 08:54:24;;;;;;;13.95;7.97;;;7.90;99.90;;;;;;5033376;28;20025;-61
2023/10/23 08:56:58;;;;;;;12.60;8.05;;;8.00;99.90;;;;;;5016947;28;20021;-61
2023/10/23 08:59:24;;;;;;;14.02;7.35;;;8.10;99.90;;;;;;5026361;28;20022;-61
2023/10/23 09:01:50;;;;;;;10.10;7.15;;;8.10;99.90;;;;;;5015781;28;20131;-57
2023/10/23 09:04:15;;;;;;;9.65;6.80;;;8.20;99.90;;;;;;5014778;28;20520;-60
2023/10/23 09:06:42;;;;;;;12.40;7.03;;;8.20;99.90;;;;;;5034208;28;20086;-62
2023/10/23 09:09:08;;;;;;;10.02;7.32;;;8.30;99.90;;;;;;5035379;28;20508;-58
2023/10/23 09:11:45;;;;;;;12.80;8.93;;;8.30;99.90;;;;;;5036036;28;20174;-61
2023/10/23 09:14:25;;;;;;;11.75;7.45;;;8.40;99.90;;;;;;5032894;28;20108;-61
2023/10/23 09:16:52;;;;;;;11.90;6.38;;;8.50;99.90;;;;;;5033253;28;20076;-61
2023/10/23 09:19:39;;;;;;;10.77;7.90;;;8.40;99.90;;;;;;5034121;28;20133;-61
2023/10/23 09:22:06;;;;;;;;;;;8.50;99.90;;;;;;5031201;28;20025;-62
2023/10/23 09:24:32;;;;;;;11.73;6.60;;;8.50;99.90;;;;;;5031556;28;20027;-61
2023/10/23 09:26:57;;;;;;;11.23;6.95;;;8.50;99.90;;;;;;5035531;28;20683;-58
2023/10/23 09:29:24;;;;;;;7.50;5.78;;;8.60;99.90;;;;;;5031048;28;20071;-58
2023/10/23 09:31:51;;;;;;;8.30;5.95;;;8.60;99.90;;;;;;5029873;28;20056;-59
2023/10/23 09:34:21;;;;;;;9.23;5.72;;;8.60;99.90;;;;;;5031594;28;20034;-61
2023/10/23 09:36:47;;;;;;;8.93;5.88;;;8.80;99.90;;;;;;5034746;28;20033;-61
2023/10/23 09:39:13;;;;;;;7.30;5.63;;;8.80;99.90;;;;;;5036353;28;20154;-61
2023/10/23 09:41:40;;;;;;;10.82;5.40;;;8.80;99.90;;;;;;5036566;28;20405;-62
2023/10/23 09:44:07;;;;;;;8.35;5.78;;;8.90;99.90;;;;;;5034205;28;20524;-58
2023/10/23 09:46:33;;;;;;;12.77;7.38;;;9.00;99.90;;;;;;5013504;28;20082;-61
2023/10/23 09:49:00;;;;;;;8.75;5.57;;;9.10;99.90;;;;;;5028761;28;20040;-61
2023/10/23 09:51:41;;;;;;;10.38;5.07;;;9.10;99.90;;;;;;5034207;28;20397;-62
2023/10/23 09:54:19;;;;;;;5.15;4.65;;;9.20;99.90;;;;;;5033225;28;20028;-60
2023/10/23 09:56:48;;;;;;;6.85;3.92;;;9.20;99.90;;;;;;5034647;28;20078;-60
2023/10/23 09:59:22;;;;;;;5.90;4.72;;;9.30;99.90;;;;;;5032217;28;20523;-60
2023/10/23 10:01:52;;;;;;;5.30;3.70;;;9.30;99.90;;;;;;5013933;28;20021;-61
2023/10/23 10:04:33;;;;;;;7.63;4.13;;;9.40;99.90;;;;;;5033756;28;22201;-61
2023/10/23 10:07:07;;;;;;;5.63;4.45;;;9.40;99.90;;;;;;5036458;28;20061;-60
2023/10/23 10:09:34;;;;;;;5.78;3.47;;;9.50;99.90;;;;;;5033616;28;20033;-61
2023/10/23 10:12:00;;;;;;;4.45;3.80;;;9.50;99.90;;;;;;5034494;28;20071;-61
2023/10/23 10:14:27;;;;;;;7.75;4.40;;;9.50;99.90;;;;;;5031909;28;20049;-61
2023/10/23 10:16:57;;;;;;;5.60;4.25;;;9.60;99.90;;;;;;5036447;28;20025;-59
2023/10/23 10:19:26;;;;;;;6.78;5.03;;;9.60;99.90;;;;;;5030250;28;20021;-61
2023/10/23 10:22:17;;;;;;;8.25;4.53;;;9.70;99.90;;;;;;5032592;28;20031;-58
2023/10/23 10:24:44;;;;;;;4.38;3.30;;;9.80;99.90;;;;;;5015383;28;20083;-61
2023/10/23 10:27:09;;;;;;;3.70;2.80;;;9.90;99.90;;;;;;5029841;28;20110;-59
2023/10/23 10:29:35;;;;;;;5.15;3.17;;;10.00;99.90;;;;;;5033596;28;20457;-59
2023/10/23 10:32:06;;;;;;;4.00;2.90;;;10.10;99.90;;;;;;5037370;28;20029;-60
2023/10/23 10:34:37;;;;;;;7.20;3.30;;;10.20;99.90;;;;;;5034371;28;20022;-61
2023/10/23 10:37:06;;;;;;;7.00;3.83;;;10.20;99.90;;;;;;5033697;28;20024;-61
2023/10/23 10:39:48;;;;;;;6.43;3.65;;;10.30;99.90;;;;;;5038300;28;20017;-61
2023/10/23 10:42:17;;;;;;;3.85;2.25;;;10.40;99.90;;;;;;5038125;28;20567;-61
2023/10/23 10:44:59;;;;;;;6.47;3.28;;;10.40;99.90;;;;;;5039761;28;20021;-61
2023/10/23 10:47:40;;;;;;;7.80;4.13;;;10.50;99.90;;;;;;5016905;28;20032;-61
2023/10/23 10:50:06;;;;;;;8.15;4.78;;;10.60;99.90;;;;;;5037516;28;20028;-61
2023/10/23 10:52:40;;;;;;;2.17;1.98;;;10.70;99.90;;;;;;5036121;28;20052;-60
2023/10/23 10:55:10;;;;;;;3.72;2.47;;;10.70;99.90;;;;;;5026341;28;20120;-60
2023/10/23 10:57:44;;;;;;;6.70;4.38;;;10.80;99.90;;;;;;5014944;28;20029;-60
2023/10/23 11:00:11;;;;;;;5.53;3.00;;;10.80;99.90;;;;;;5020389;28;20116;-60
2023/10/23 11:02:37;;;;;;;8.40;4.80;;;10.80;99.90;;;;;;5035923;28;20079;-61
2023/10/23 11:05:13;;;;;;;6.03;3.78;;;10.80;99.90;;;;;;5041227;28;20513;-60
2023/10/23 11:07:39;;;;;;;3.45;2.85;;;10.80;99.90;;;;;;5038081;28;20035;-61
2023/10/23 11:10:05;;;;;;;4.55;2.92;;;10.90;99.90;;;;;;5018592;28;20712;-59
2023/10/23 11:12:31;;;;;;;5.25;3.67;;;10.90;99.90;;;;;;5039380;28;20037;-60
2023/10/23 11:14:57;;;;;;;5.63;3.08;;;10.90;99.90;;;;;;5039448;28;20025;-60
2023/10/23 11:17:23;;;;;;;3.05;2.10;;;11.00;99.90;;;;;;5033886;28;20053;-62
2023/10/23 11:19:49;;;;;;;4.50;1.85;;;11.10;99.90;;;;;;5037588;28;20053;-60
2023/10/23 11:22:16;;;;;;;3.80;1.55;;;11.10;99.90;;;;;;5034798;28;20057;-59
2023/10/23 11:24:42;;;;;;;3.85;2.45;;;11.10;99.90;;;;;;5037258;28;20096;-61
2023/10/23 11:27:08;;;;;;;4.63;2.45;;;11.10;99.90;;;;;;5014557;28;20036;-61
2023/10/23 11:29:45;;;;;;;4.05;2.63;;;11.20;99.90;;;;;;5018464;28;20032;-59
2023/10/23 11:32:12;;;;;;;7.70;2.60;;;11.20;99.90;;;;;;5017603;28;20025;-60
2023/10/23 11:34:38;;;;;;;3.60;1.73;;;11.20;99.90;;;;;;5033482;28;20029;-60
2023/10/23 11:37:06;;;;;;;6.65;2.92;;;11.20;99.90;;;;;;5035543;28;20040;-61
2023/10/23 11:39:32;;;;;;;5.90;3.05;;;11.30;99.90;;;;;;5035705;28;20022;-59
2023/10/23 11:41:59;;;;;;;3.72;2.00;;;11.20;99.90;;;;;;5038832;28;20021;-62
2023/10/23 11:44:29;;;;;;;6.22;1.70;;;11.20;99.90;;;;;;5038281;28;20025;-60
2023/10/23 11:46:58;;;;;;;1.33;1.05;;;11.30;99.90;;;;;;5034015;28;20116;-61
2023/10/23 11:49:24;;;;;;;4.55;1.40;;;11.30;99.90;;;;;;5030101;28;20061;-59
2023/10/23 11:51:56;;;;;;;6.82;1.60;;;11.40;99.90;;;;;;5034393;28;20021;-60
2023/10/23 11:54:23;;;;;;;3.10;1.10;;;11.40;99.90;;;;;;5027901;28;20033;-60
2023/10/23 11:56:49;;;;;;;1.90;1.48;;;11.40;99.90;;;;;;5023769;28;20052;-60
2023/10/23 11:59:16;;;;;;;3.50;1.67;;;11.50;99.90;;;;;;5034569;28;20486;-60
2023/10/23 12:01:42;;;;;;;2.03;1.45;;;11.50;99.90;;;;;;5040330;28;20021;-61
2023/10/23 12:04:08;;;;;;;1.95;1.40;;;11.50;99.90;;;;;;5036008;28;20050;-61
2023/10/23 12:06:34;;;;;;;3.08;1.52;;;11.60;99.90;;;;;;5036067;28;20030;-61
2023/10/23 12:09:00;;;;;;;2.25;1.20;;;11.60;99.90;;;;;;5035435;28;20121;-61
2023/10/23 12:11:25;;;;;;;3.00;1.60;;;11.60;99.90;;;;;;5027358;28;20452;-60
2023/10/23 12:13:51;;;;;;;2.72;1.65;;;11.70;99.90;;;;;;5039550;28;20029;-61
2023/10/23 12:16:16;;;;;;;2.33;1.35;;;11.70;99.90;;;;;;5012036;28;20040;-61
2023/10/23 12:18:43;;;;;;;2.35;1.30;;;11.70;99.90;;;;;;5036309;28;20021;-62
2023/10/23 12:21:08;;;;;;;4.97;1.40;;;11.70;99.90;;;;;;5037660;28;20044;-62
2023/10/23 12:23:34;;;;;;;2.38;1.30;;;11.70;99.90;;;;;;5038053;28;20142;-60
2023/10/23 12:25:59;;;;;;;3.28;1.10;;;11.80;99.90;;;;;;5035162;28;20797;-59
2023/10/23 12:28:26;;;;;;;2.13;1.02;;;11.80;99.90;;;;;;5028081;28;20683;-59
2023/10/23 12:30:51;;;;;;;2.45;1.35;;;11.80;99.90;;;;;;5039422;28;20025;-61
2023/10/23 12:33:17;;;;;;;5.88;1.35;;;11.90;99.90;;;;;;5037788;28;20602;-61
2023/10/23 12:35:43;;;;;;;4.68;1.52;;;11.90;99.90;;;;;;5036842;28;20079;-61
2023/10/23 12:38:10;;;;;;;2.55;1.38;;;11.90;99.90;;;;;;5033452;28;20021;-59
2023/10/23 12:40:38;;;;;;;3.13;1.30;;;11.90;99.90;;;;;;5017992;28;20441;-61
2023/10/23 12:43:04;;;;;;;3.58;1.35;;;11.90;99.90;;;;;;5021849;28;20025;-62
2023/10/23 12:45:30;;;;;;;2.78;1.58;;;11.90;99.90;;;;;;5035467;28;20036;-60
2023/10/23 12:47:56;;;;;;;3.88;1.70;;;11.90;99.90;;;;;;5033275;28;20025;-61
2023/10/23 12:50:21;;;;;;;2.35;1.23;;;11.90;99.90;;;;;;5011995;28;20067;-61